sensor_id;sensor_type;location;lat;lon;timestamp;P1;durP1;ratioP1;P2;durP2;ratioP2
75935;SDS011;64614;32.062;34.834;2023-02-28T00:01:18;13.05;;;7.78;;
75935;SDS011;64614;32.062;34.834;2023-02-28T00:03:45;12.23;;;8.38;;
75935;SDS011;64614;32.062;34.834;2023-02-28T00:06:12;13.02;;;8.18;;
75935;SDS011;64614;32.062;34.834;2023-02-28T00:08:37;13.07;;;8.55;;
75935;SDS011;64614;32.062;34.834;2023-02-28T00:11:04;13.68;;;9.38;;
75935;SDS011;64614;32.062;34.834;2023-02-28T00:13:31;12.05;;;8.15;;
75935;SDS011;64614;32.062;34.834;2023-02-28T00:16:04;13.57;;;8.52;;
75935;SDS011;64614;32.062;34.834;2023-02-28T00:18:31;13.43;;;8.35;;
75935;SDS011;64614;32.062;34.834;2023-02-28T00:20:57;12.25;;;8.57;;
75935;SDS011;64614;32.062;34.834;2023-02-28T00:23:24;13.48;;;8.70;;
75935;SDS011;64614;32.062;34.834;2023-02-28T00:25:51;12.90;;;8.23;;
75935;SDS011;64614;32.062;34.834;2023-02-28T00:28:17;12.65;;;8.50;;
75935;SDS011;64614;32.062;34.834;2023-02-28T00:30:43;12.05;;;9.00;;
75935;SDS011;64614;32.062;34.834;2023-02-28T00:33:09;11.70;;;8.18;;
75935;SDS011;64614;32.062;34.834;2023-02-28T00:35:35;13.40;;;8.43;;
75935;SDS011;64614;32.062;34.834;2023-02-28T00:38:01;12.20;;;8.55;;
75935;SDS011;64614;32.062;34.834;2023-02-28T00:40:27;11.35;;;8.65;;
75935;SDS011;64614;32.062;34.834;2023-02-28T00:42:54;13.40;;;8.02;;
75935;SDS011;64614;32.062;34.834;2023-02-28T00:45:19;12.13;;;8.90;;
75935;SDS011;64614;32.062;34.834;2023-02-28T00:50:24;13.27;;;7.80;;
75935;SDS011;64614;32.062;34.834;2023-02-28T00:52:49;12.10;;;7.32;;
75935;SDS011;64614;32.062;34.834;2023-02-28T00:55:15;11.27;;;7.45;;
75935;SDS011;64614;32.062;34.834;2023-02-28T00:57:42;10.23;;;7.00;;
75935;SDS011;64614;32.062;34.834;2023-02-28T01:00:07;12.95;;;7.40;;
75935;SDS011;64614;32.062;34.834;2023-02-28T01:02:34;9.77;;;6.90;;
75935;SDS011;64614;32.062;34.834;2023-02-28T01:04:59;10.32;;;7.43;;
75935;SDS011;64614;32.062;34.834;2023-02-28T01:07:25;10.95;;;7.70;;
75935;SDS011;64614;32.062;34.834;2023-02-28T01:09:51;10.50;;;7.05;;
75935;SDS011;64614;32.062;34.834;2023-02-28T01:12:16;11.32;;;7.43;;
75935;SDS011;64614;32.062;34.834;2023-02-28T01:17:29;11.57;;;7.57;;
75935;SDS011;64614;32.062;34.834;2023-02-28T01:19:55;11.25;;;7.85;;
75935;SDS011;64614;32.062;34.834;2023-02-28T01:22:21;11.88;;;7.88;;
75935;SDS011;64614;32.062;34.834;2023-02-28T01:24:47;12.23;;;7.45;;
75935;SDS011;64614;32.062;34.834;2023-02-28T01:27:13;12.57;;;7.75;;
75935;SDS011;64614;32.062;34.834;2023-02-28T01:29:38;10.55;;;7.22;;
75935;SDS011;64614;32.062;34.834;2023-02-28T01:32:04;11.63;;;8.05;;
75935;SDS011;64614;32.062;34.834;2023-02-28T01:34:31;12.13;;;7.57;;
75935;SDS011;64614;32.062;34.834;2023-02-28T01:36:57;13.48;;;8.02;;
75935;SDS011;64614;32.062;34.834;2023-02-28T01:39:24;11.15;;;7.45;;
75935;SDS011;64614;32.062;34.834;2023-02-28T01:41:50;11.48;;;7.35;;
75935;SDS011;64614;32.062;34.834;2023-02-28T01:47:22;11.50;;;6.75;;
75935;SDS011;64614;32.062;34.834;2023-02-28T01:50:03;11.30;;;7.72;;
75935;SDS011;64614;32.062;34.834;2023-02-28T01:52:32;10.65;;;7.38;;
75935;SDS011;64614;32.062;34.834;2023-02-28T01:54:59;10.77;;;7.50;;
75935;SDS011;64614;32.062;34.834;2023-02-28T01:57:30;11.57;;;7.70;;
75935;SDS011;64614;32.062;34.834;2023-02-28T02:00:13;13.35;;;8.20;;
75935;SDS011;64614;32.062;34.834;2023-02-28T02:02:43;11.15;;;7.63;;
75935;SDS011;64614;32.062;34.834;2023-02-28T02:07:45;11.93;;;7.40;;
75935;SDS011;64614;32.062;34.834;2023-02-28T02:15:16;10.90;;;7.00;;
75935;SDS011;64614;32.062;34.834;2023-02-28T02:23:14;10.80;;;6.90;;
75935;SDS011;64614;32.062;34.834;2023-02-28T02:26:09;11.93;;;7.68;;
75935;SDS011;64614;32.062;34.834;2023-02-28T02:39:20;12.02;;;7.47;;
75935;SDS011;64614;32.062;34.834;2023-02-28T02:42:16;12.27;;;7.80;;
75935;SDS011;64614;32.062;34.834;2023-02-28T02:44:52;13.75;;;8.02;;
75935;SDS011;64614;32.062;34.834;2023-02-28T02:47:30;13.13;;;7.57;;
75935;SDS011;64614;32.062;34.834;2023-02-28T02:49:57;11.10;;;7.72;;
75935;SDS011;64614;32.062;34.834;2023-02-28T02:52:37;13.98;;;7.97;;
75935;SDS011;64614;32.062;34.834;2023-02-28T02:55:10;12.60;;;7.68;;
75935;SDS011;64614;32.062;34.834;2023-02-28T03:00:37;9.40;;;6.90;;
75935;SDS011;64614;32.062;34.834;2023-02-28T03:03:08;11.45;;;7.45;;
75935;SDS011;64614;32.062;34.834;2023-02-28T03:05:39;11.43;;;7.25;;
75935;SDS011;64614;32.062;34.834;2023-02-28T03:08:09;11.73;;;7.57;;
75935;SDS011;64614;32.062;34.834;2023-02-28T03:10:45;13.23;;;7.75;;
75935;SDS011;64614;32.062;34.834;2023-02-28T03:15:53;11.93;;;7.90;;
75935;SDS011;64614;32.062;34.834;2023-02-28T03:26:34;14.80;;;7.80;;
75935;SDS011;64614;32.062;34.834;2023-02-28T03:37:31;12.65;;;7.50;;
75935;SDS011;64614;32.062;34.834;2023-02-28T03:40:04;13.75;;;7.68;;
75935;SDS011;64614;32.062;34.834;2023-02-28T03:42:38;13.50;;;7.68;;
75935;SDS011;64614;32.062;34.834;2023-02-28T03:45:10;13.48;;;7.80;;
75935;SDS011;64614;32.062;34.834;2023-02-28T03:47:45;13.68;;;7.80;;
75935;SDS011;64614;32.062;34.834;2023-02-28T03:50:24;10.88;;;7.90;;
75935;SDS011;64614;32.062;34.834;2023-02-28T03:53:13;14.70;;;8.10;;
75935;SDS011;64614;32.062;34.834;2023-02-28T03:56:15;13.10;;;8.10;;
75935;SDS011;64614;32.062;34.834;2023-02-28T03:59:02;12.50;;;8.02;;
75935;SDS011;64614;32.062;34.834;2023-02-28T04:01:43;13.32;;;8.25;;
75935;SDS011;64614;32.062;34.834;2023-02-28T04:04:10;15.15;;;7.78;;
75935;SDS011;64614;32.062;34.834;2023-02-28T04:06:38;11.98;;;7.70;;
75935;SDS011;64614;32.062;34.834;2023-02-28T04:09:05;11.70;;;8.13;;
75935;SDS011;64614;32.062;34.834;2023-02-28T04:11:37;14.30;;;7.85;;
75935;SDS011;64614;32.062;34.834;2023-02-28T04:16:41;11.32;;;7.53;;
75935;SDS011;64614;32.062;34.834;2023-02-28T04:19:08;13.90;;;7.97;;
75935;SDS011;64614;32.062;34.834;2023-02-28T04:21:36;12.90;;;8.02;;
75935;SDS011;64614;32.062;34.834;2023-02-28T04:24:07;13.80;;;7.75;;
75935;SDS011;64614;32.062;34.834;2023-02-28T04:26:40;14.18;;;7.88;;
75935;SDS011;64614;32.062;34.834;2023-02-28T04:29:08;17.17;;;7.72;;
75935;SDS011;64614;32.062;34.834;2023-02-28T04:31:35;16.17;;;8.90;;
75935;SDS011;64614;32.062;34.834;2023-02-28T04:34:01;14.48;;;7.82;;
75935;SDS011;64614;32.062;34.834;2023-02-28T04:36:27;14.52;;;8.55;;
75935;SDS011;64614;32.062;34.834;2023-02-28T04:38:53;14.00;;;7.93;;
75935;SDS011;64614;32.062;34.834;2023-02-28T04:41:21;13.70;;;7.93;;
75935;SDS011;64614;32.062;34.834;2023-02-28T04:43:50;13.15;;;8.18;;
75935;SDS011;64614;32.062;34.834;2023-02-28T04:46:17;14.48;;;8.23;;
75935;SDS011;64614;32.062;34.834;2023-02-28T04:48:43;17.23;;;8.55;;
75935;SDS011;64614;32.062;34.834;2023-02-28T04:51:11;17.92;;;8.68;;
75935;SDS011;64614;32.062;34.834;2023-02-28T04:53:40;17.67;;;8.23;;
75935;SDS011;64614;32.062;34.834;2023-02-28T04:56:07;17.65;;;8.60;;
75935;SDS011;64614;32.062;34.834;2023-02-28T05:03:48;15.15;;;8.32;;
75935;SDS011;64614;32.062;34.834;2023-02-28T05:06:14;16.30;;;8.50;;
75935;SDS011;64614;32.062;34.834;2023-02-28T05:13:45;16.13;;;8.60;;
75935;SDS011;64614;32.062;34.834;2023-02-28T05:16:13;16.75;;;8.95;;
75935;SDS011;64614;32.062;34.834;2023-02-28T05:18:39;15.93;;;8.13;;
75935;SDS011;64614;32.062;34.834;2023-02-28T05:21:05;19.63;;;9.45;;
75935;SDS011;64614;32.062;34.834;2023-02-28T05:23:31;14.00;;;8.73;;
75935;SDS011;64614;32.062;34.834;2023-02-28T05:25:58;16.73;;;8.52;;
75935;SDS011;64614;32.062;34.834;2023-02-28T05:28:23;15.50;;;9.00;;
75935;SDS011;64614;32.062;34.834;2023-02-28T05:30:51;17.08;;;8.75;;
75935;SDS011;64614;32.062;34.834;2023-02-28T05:33:22;18.42;;;10.00;;
75935;SDS011;64614;32.062;34.834;2023-02-28T05:35:49;16.15;;;9.82;;
75935;SDS011;64614;32.062;34.834;2023-02-28T05:38:15;16.83;;;9.68;;
75935;SDS011;64614;32.062;34.834;2023-02-28T05:40:43;17.92;;;9.65;;
75935;SDS011;64614;32.062;34.834;2023-02-28T05:43:10;16.25;;;8.85;;
75935;SDS011;64614;32.062;34.834;2023-02-28T05:45:39;15.88;;;9.15;;
75935;SDS011;64614;32.062;34.834;2023-02-28T05:48:04;18.95;;;8.77;;
75935;SDS011;64614;32.062;34.834;2023-02-28T06:00:51;15.43;;;8.98;;
75935;SDS011;64614;32.062;34.834;2023-02-28T06:03:17;15.43;;;10.40;;
75935;SDS011;64614;32.062;34.834;2023-02-28T06:05:42;15.38;;;9.60;;
75935;SDS011;64614;32.062;34.834;2023-02-28T06:08:08;17.92;;;9.85;;
75935;SDS011;64614;32.062;34.834;2023-02-28T06:10:34;14.13;;;9.02;;
75935;SDS011;64614;32.062;34.834;2023-02-28T06:13:02;18.33;;;9.90;;
75935;SDS011;64614;32.062;34.834;2023-02-28T06:15:29;16.98;;;9.43;;
75935;SDS011;64614;32.062;34.834;2023-02-28T06:17:59;15.70;;;9.30;;
75935;SDS011;64614;32.062;34.834;2023-02-28T06:20:26;13.45;;;9.32;;
75935;SDS011;64614;32.062;34.834;2023-02-28T06:22:56;15.52;;;8.43;;
75935;SDS011;64614;32.062;34.834;2023-02-28T06:25:24;13.75;;;9.00;;
75935;SDS011;64614;32.062;34.834;2023-02-28T06:30:25;14.57;;;8.63;;
75935;SDS011;64614;32.062;34.834;2023-02-28T06:32:53;17.23;;;9.45;;
75935;SDS011;64614;32.062;34.834;2023-02-28T06:35:19;15.32;;;9.07;;
75935;SDS011;64614;32.062;34.834;2023-02-28T06:37:54;13.52;;;8.75;;
75935;SDS011;64614;32.062;34.834;2023-02-28T06:40:20;14.57;;;9.35;;
75935;SDS011;64614;32.062;34.834;2023-02-28T06:42:46;14.65;;;9.45;;
75935;SDS011;64614;32.062;34.834;2023-02-28T06:45:12;16.40;;;10.00;;
75935;SDS011;64614;32.062;34.834;2023-02-28T06:47:38;15.32;;;9.10;;
75935;SDS011;64614;32.062;34.834;2023-02-28T06:52:41;14.50;;;8.85;;
75935;SDS011;64614;32.062;34.834;2023-02-28T06:55:07;15.00;;;9.73;;
75935;SDS011;64614;32.062;34.834;2023-02-28T06:57:33;16.83;;;9.20;;
75935;SDS011;64614;32.062;34.834;2023-02-28T07:00:00;15.20;;;9.52;;
75935;SDS011;64614;32.062;34.834;2023-02-28T07:02:28;14.55;;;9.60;;
75935;SDS011;64614;32.062;34.834;2023-02-28T07:04:54;14.57;;;8.65;;
75935;SDS011;64614;32.062;34.834;2023-02-28T07:07:21;14.65;;;8.88;;
75935;SDS011;64614;32.062;34.834;2023-02-28T07:12:23;14.93;;;9.02;;
75935;SDS011;64614;32.062;34.834;2023-02-28T07:14:50;17.17;;;8.45;;
75935;SDS011;64614;32.062;34.834;2023-02-28T07:17:15;16.50;;;9.65;;
75935;SDS011;64614;32.062;34.834;2023-02-28T07:19:41;14.90;;;9.02;;
75935;SDS011;64614;32.062;34.834;2023-02-28T07:22:08;16.75;;;9.65;;
75935;SDS011;64614;32.062;34.834;2023-02-28T07:24:37;15.27;;;9.82;;
75935;SDS011;64614;32.062;34.834;2023-02-28T07:27:03;16.02;;;9.55;;
75935;SDS011;64614;32.062;34.834;2023-02-28T07:29:29;21.48;;;9.82;;
75935;SDS011;64614;32.062;34.834;2023-02-28T07:31:55;14.45;;;9.35;;
75935;SDS011;64614;32.062;34.834;2023-02-28T07:34:21;15.43;;;10.00;;
75935;SDS011;64614;32.062;34.834;2023-02-28T07:36:48;15.25;;;10.05;;
75935;SDS011;64614;32.062;34.834;2023-02-28T07:39:18;16.90;;;9.73;;
75935;SDS011;64614;32.062;34.834;2023-02-28T07:41:46;17.65;;;9.70;;
75935;SDS011;64614;32.062;34.834;2023-02-28T07:44:12;15.20;;;9.43;;
75935;SDS011;64614;32.062;34.834;2023-02-28T07:46:38;15.68;;;9.75;;
75935;SDS011;64614;32.062;34.834;2023-02-28T07:49:06;15.57;;;9.73;;
75935;SDS011;64614;32.062;34.834;2023-02-28T07:51:32;14.40;;;9.38;;
75935;SDS011;64614;32.062;34.834;2023-02-28T07:53:58;15.43;;;9.15;;
75935;SDS011;64614;32.062;34.834;2023-02-28T07:56:23;13.27;;;8.77;;
75935;SDS011;64614;32.062;34.834;2023-02-28T07:58:49;13.45;;;8.65;;
75935;SDS011;64614;32.062;34.834;2023-02-28T08:01:16;16.80;;;9.27;;
75935;SDS011;64614;32.062;34.834;2023-02-28T08:03:43;16.10;;;9.50;;
75935;SDS011;64614;32.062;34.834;2023-02-28T08:06:14;19.75;;;9.63;;
75935;SDS011;64614;32.062;34.834;2023-02-28T08:08:45;16.48;;;10.18;;
75935;SDS011;64614;32.062;34.834;2023-02-28T08:11:11;14.35;;;9.43;;
75935;SDS011;64614;32.062;34.834;2023-02-28T08:13:38;14.35;;;8.57;;
75935;SDS011;64614;32.062;34.834;2023-02-28T08:16:03;14.98;;;9.95;;
75935;SDS011;64614;32.062;34.834;2023-02-28T08:18:29;13.50;;;8.40;;
75935;SDS011;64614;32.062;34.834;2023-02-28T08:20:56;14.55;;;9.70;;
75935;SDS011;64614;32.062;34.834;2023-02-28T08:23:22;14.07;;;8.65;;
75935;SDS011;64614;32.062;34.834;2023-02-28T08:25:57;15.13;;;8.82;;
75935;SDS011;64614;32.062;34.834;2023-02-28T08:28:25;15.45;;;8.50;;
75935;SDS011;64614;32.062;34.834;2023-02-28T08:30:50;13.60;;;9.70;;
75935;SDS011;64614;32.062;34.834;2023-02-28T08:33:17;14.40;;;9.98;;
75935;SDS011;64614;32.062;34.834;2023-02-28T08:35:43;12.73;;;9.43;;
75935;SDS011;64614;32.062;34.834;2023-02-28T08:38:09;14.30;;;8.68;;
75935;SDS011;64614;32.062;34.834;2023-02-28T08:40:35;12.68;;;8.80;;
75935;SDS011;64614;32.062;34.834;2023-02-28T08:43:00;15.50;;;8.55;;
75935;SDS011;64614;32.062;34.834;2023-02-28T08:48:01;15.30;;;9.00;;
75935;SDS011;64614;32.062;34.834;2023-02-28T08:50:28;16.73;;;9.65;;
75935;SDS011;64614;32.062;34.834;2023-02-28T08:52:54;13.32;;;8.23;;
75935;SDS011;64614;32.062;34.834;2023-02-28T08:55:20;13.93;;;8.60;;
75935;SDS011;64614;32.062;34.834;2023-02-28T08:57:45;15.63;;;8.68;;
75935;SDS011;64614;32.062;34.834;2023-02-28T09:00:11;14.07;;;8.50;;
75935;SDS011;64614;32.062;34.834;2023-02-28T09:02:38;14.75;;;8.43;;
75935;SDS011;64614;32.062;34.834;2023-02-28T09:05:09;12.48;;;8.52;;
75935;SDS011;64614;32.062;34.834;2023-02-28T09:07:34;14.77;;;9.60;;
75935;SDS011;64614;32.062;34.834;2023-02-28T09:10:00;15.30;;;9.75;;
75935;SDS011;64614;32.062;34.834;2023-02-28T09:12:26;14.15;;;8.95;;
75935;SDS011;64614;32.062;34.834;2023-02-28T09:14:53;14.55;;;8.25;;
75935;SDS011;64614;32.062;34.834;2023-02-28T09:17:19;14.95;;;8.85;;
75935;SDS011;64614;32.062;34.834;2023-02-28T09:19:47;16.15;;;9.63;;
75935;SDS011;64614;32.062;34.834;2023-02-28T09:22:16;15.13;;;9.23;;
75935;SDS011;64614;32.062;34.834;2023-02-28T09:24:41;13.60;;;8.55;;
75935;SDS011;64614;32.062;34.834;2023-02-28T09:29:42;13.35;;;8.00;;
75935;SDS011;64614;32.062;34.834;2023-02-28T09:32:08;14.40;;;9.13;;
75935;SDS011;64614;32.062;34.834;2023-02-28T09:34:34;14.30;;;8.98;;
75935;SDS011;64614;32.062;34.834;2023-02-28T09:37:01;12.48;;;8.27;;
75935;SDS011;64614;32.062;34.834;2023-02-28T09:39:27;13.90;;;8.63;;
75935;SDS011;64614;32.062;34.834;2023-02-28T09:41:54;14.55;;;8.98;;
75935;SDS011;64614;32.062;34.834;2023-02-28T09:44:36;12.63;;;8.55;;
75935;SDS011;64614;32.062;34.834;2023-02-28T09:47:24;13.70;;;9.18;;
75935;SDS011;64614;32.062;34.834;2023-02-28T09:49:56;13.82;;;7.43;;
75935;SDS011;64614;32.062;34.834;2023-02-28T09:55:17;12.45;;;8.23;;
75935;SDS011;64614;32.062;34.834;2023-02-28T10:02:54;11.73;;;8.18;;
75935;SDS011;64614;32.062;34.834;2023-02-28T10:05:39;11.63;;;8.50;;
75935;SDS011;64614;32.062;34.834;2023-02-28T10:08:13;14.70;;;7.57;;
75935;SDS011;64614;32.062;34.834;2023-02-28T10:10:53;13.93;;;7.93;;
75935;SDS011;64614;32.062;34.834;2023-02-28T10:13:33;12.60;;;7.90;;
75935;SDS011;64614;32.062;34.834;2023-02-28T10:18:40;13.32;;;8.02;;
75935;SDS011;64614;32.062;34.834;2023-02-28T10:23:46;12.85;;;7.43;;
75935;SDS011;64614;32.062;34.834;2023-02-28T10:26:14;11.82;;;7.57;;
75935;SDS011;64614;32.062;34.834;2023-02-28T10:28:42;12.45;;;7.85;;
75935;SDS011;64614;32.062;34.834;2023-02-28T10:31:11;11.25;;;7.38;;
75935;SDS011;64614;32.062;34.834;2023-02-28T10:33:42;12.65;;;7.53;;
75935;SDS011;64614;32.062;34.834;2023-02-28T10:36:12;13.48;;;7.90;;
75935;SDS011;64614;32.062;34.834;2023-02-28T10:38:41;11.93;;;7.50;;
75935;SDS011;64614;32.062;34.834;2023-02-28T10:43:43;15.25;;;8.10;;
75935;SDS011;64614;32.062;34.834;2023-02-28T10:46:16;12.50;;;7.78;;
75935;SDS011;64614;32.062;34.834;2023-02-28T10:49:00;14.60;;;8.13;;
75935;SDS011;64614;32.062;34.834;2023-02-28T10:51:36;12.65;;;7.82;;
75935;SDS011;64614;32.062;34.834;2023-02-28T10:54:03;14.50;;;8.00;;
75935;SDS011;64614;32.062;34.834;2023-02-28T10:59:50;11.95;;;7.65;;
75935;SDS011;64614;32.062;34.834;2023-02-28T11:15:33;16.58;;;7.70;;
75935;SDS011;64614;32.062;34.834;2023-02-28T11:24:20;14.10;;;7.88;;
75935;SDS011;64614;32.062;34.834;2023-02-28T11:41:37;15.18;;;7.50;;
75935;SDS011;64614;32.062;34.834;2023-02-28T11:44:32;10.45;;;6.85;;
75935;SDS011;64614;32.062;34.834;2023-02-28T11:56:32;11.70;;;6.68;;
75935;SDS011;64614;32.062;34.834;2023-02-28T11:59:22;12.02;;;6.85;;
75935;SDS011;64614;32.062;34.834;2023-02-28T12:02:18;12.88;;;7.43;;
75935;SDS011;64614;32.062;34.834;2023-02-28T12:05:01;11.15;;;6.55;;
75935;SDS011;64614;32.062;34.834;2023-02-28T12:24:41;11.13;;;6.55;;
75935;SDS011;64614;32.062;34.834;2023-02-28T12:26:55;12.70;;;6.32;;
75935;SDS011;64614;32.062;34.834;2023-02-28T12:29:29;11.52;;;6.82;;
75935;SDS011;64614;32.062;34.834;2023-02-28T12:32:19;10.73;;;6.65;;
75935;SDS011;64614;32.062;34.834;2023-02-28T12:34:54;9.88;;;6.53;;
75935;SDS011;64614;32.062;34.834;2023-02-28T12:37:28;12.48;;;6.80;;
75935;SDS011;64614;32.062;34.834;2023-02-28T12:40:03;11.88;;;6.63;;
75935;SDS011;64614;32.062;34.834;2023-02-28T12:42:40;11.55;;;6.70;;
75935;SDS011;64614;32.062;34.834;2023-02-28T12:45:21;11.63;;;6.38;;
75935;SDS011;64614;32.062;34.834;2023-02-28T12:47:58;12.98;;;6.53;;
75935;SDS011;64614;32.062;34.834;2023-02-28T12:50:30;10.75;;;6.50;;
75935;SDS011;64614;32.062;34.834;2023-02-28T12:53:02;10.15;;;6.53;;
75935;SDS011;64614;32.062;34.834;2023-02-28T12:59:01;11.65;;;6.55;;
75935;SDS011;64614;32.062;34.834;2023-02-28T13:07:36;12.88;;;6.13;;
75935;SDS011;64614;32.062;34.834;2023-02-28T13:10:04;10.80;;;5.65;;
75935;SDS011;64614;32.062;34.834;2023-02-28T13:12:32;9.18;;;6.00;;
75935;SDS011;64614;32.062;34.834;2023-02-28T13:15:16;9.68;;;6.07;;
75935;SDS011;64614;32.062;34.834;2023-02-28T13:17:54;9.88;;;6.20;;
75935;SDS011;64614;32.062;34.834;2023-02-28T13:20:29;10.40;;;6.30;;
75935;SDS011;64614;32.062;34.834;2023-02-28T13:23:01;10.88;;;5.88;;
75935;SDS011;64614;32.062;34.834;2023-02-28T13:28:02;9.50;;;5.25;;
75935;SDS011;64614;32.062;34.834;2023-02-28T13:33:36;9.52;;;6.32;;
75935;SDS011;64614;32.062;34.834;2023-02-28T13:36:29;8.27;;;5.60;;
75935;SDS011;64614;32.062;34.834;2023-02-28T13:49:27;9.27;;;5.72;;
75935;SDS011;64614;32.062;34.834;2023-02-28T13:52:02;9.93;;;5.45;;
75935;SDS011;64614;32.062;34.834;2023-02-28T13:54:49;9.23;;;5.55;;
75935;SDS011;64614;32.062;34.834;2023-02-28T13:57:33;10.45;;;6.05;;
75935;SDS011;64614;32.062;34.834;2023-02-28T14:00:23;10.00;;;5.78;;
75935;SDS011;64614;32.062;34.834;2023-02-28T14:03:04;9.05;;;5.68;;
75935;SDS011;64614;32.062;34.834;2023-02-28T14:11:16;9.95;;;5.90;;
75935;SDS011;64614;32.062;34.834;2023-02-28T14:14:09;11.32;;;6.10;;
75935;SDS011;64614;32.062;34.834;2023-02-28T14:17:01;12.93;;;5.70;;
75935;SDS011;64614;32.062;34.834;2023-02-28T14:19:29;9.45;;;5.53;;
75935;SDS011;64614;32.062;34.834;2023-02-28T14:22:07;9.90;;;5.63;;
75935;SDS011;64614;32.062;34.834;2023-02-28T14:27:32;11.60;;;5.85;;
75935;SDS011;64614;32.062;34.834;2023-02-28T14:36:39;10.05;;;6.10;;
75935;SDS011;64614;32.062;34.834;2023-02-28T14:38:56;11.48;;;6.55;;
75935;SDS011;64614;32.062;34.834;2023-02-28T14:41:31;12.02;;;6.32;;
75935;SDS011;64614;32.062;34.834;2023-02-28T14:44:20;12.52;;;6.38;;
75935;SDS011;64614;32.062;34.834;2023-02-28T14:46:52;11.65;;;6.25;;
75935;SDS011;64614;32.062;34.834;2023-02-28T14:49:27;13.52;;;6.45;;
75935;SDS011;64614;32.062;34.834;2023-02-28T14:54:54;11.98;;;6.93;;
75935;SDS011;64614;32.062;34.834;2023-02-28T14:57:34;12.48;;;7.00;;
75935;SDS011;64614;32.062;34.834;2023-02-28T15:00:15;12.20;;;6.70;;
75935;SDS011;64614;32.062;34.834;2023-02-28T15:08:01;11.95;;;7.03;;
75935;SDS011;64614;32.062;34.834;2023-02-28T15:10:27;9.95;;;6.32;;
75935;SDS011;64614;32.062;34.834;2023-02-28T15:15:19;10.85;;;6.78;;
75935;SDS011;64614;32.062;34.834;2023-02-28T15:17:49;11.02;;;6.47;;
75935;SDS011;64614;32.062;34.834;2023-02-28T15:22:53;12.45;;;7.10;;
75935;SDS011;64614;32.062;34.834;2023-02-28T15:25:21;12.93;;;7.30;;
75935;SDS011;64614;32.062;34.834;2023-02-28T15:27:50;10.73;;;6.20;;
75935;SDS011;64614;32.062;34.834;2023-02-28T15:30:22;11.35;;;6.75;;
75935;SDS011;64614;32.062;34.834;2023-02-28T15:33:06;11.43;;;6.78;;
75935;SDS011;64614;32.062;34.834;2023-02-28T15:35:43;11.60;;;6.78;;
75935;SDS011;64614;32.062;34.834;2023-02-28T15:38:22;10.25;;;6.63;;
75935;SDS011;64614;32.062;34.834;2023-02-28T15:40:54;10.68;;;6.68;;
75935;SDS011;64614;32.062;34.834;2023-02-28T15:45:55;10.35;;;6.47;;
75935;SDS011;64614;32.062;34.834;2023-02-28T15:48:36;11.73;;;6.30;;
75935;SDS011;64614;32.062;34.834;2023-02-28T15:56:03;10.13;;;6.50;;
75935;SDS011;64614;32.062;34.834;2023-02-28T15:58:33;12.40;;;6.80;;
75935;SDS011;64614;32.062;34.834;2023-02-28T16:01:16;11.70;;;6.38;;
75935;SDS011;64614;32.062;34.834;2023-02-28T16:03:51;10.82;;;7.13;;
75935;SDS011;64614;32.062;34.834;2023-02-28T16:06:28;11.07;;;7.00;;
75935;SDS011;64614;32.062;34.834;2023-02-28T16:08:58;10.80;;;6.50;;
75935;SDS011;64614;32.062;34.834;2023-02-28T16:11:24;11.93;;;6.50;;
75935;SDS011;64614;32.062;34.834;2023-02-28T16:13:50;10.00;;;6.88;;
75935;SDS011;64614;32.062;34.834;2023-02-28T16:16:17;11.30;;;6.75;;
75935;SDS011;64614;32.062;34.834;2023-02-28T16:18:46;11.45;;;6.38;;
75935;SDS011;64614;32.062;34.834;2023-02-28T16:21:11;11.45;;;6.60;;
75935;SDS011;64614;32.062;34.834;2023-02-28T16:23:38;11.27;;;6.80;;
75935;SDS011;64614;32.062;34.834;2023-02-28T16:26:04;11.38;;;6.80;;
75935;SDS011;64614;32.062;34.834;2023-02-28T16:28:35;10.55;;;6.50;;
75935;SDS011;64614;32.062;34.834;2023-02-28T16:31:04;11.18;;;6.63;;
75935;SDS011;64614;32.062;34.834;2023-02-28T16:33:34;12.07;;;6.72;;
75935;SDS011;64614;32.062;34.834;2023-02-28T16:39:53;10.82;;;6.60;;
75935;SDS011;64614;32.062;34.834;2023-02-28T16:42:23;12.15;;;6.80;;
75935;SDS011;64614;32.062;34.834;2023-02-28T16:44:52;10.98;;;6.68;;
75935;SDS011;64614;32.062;34.834;2023-02-28T16:47:19;10.63;;;6.28;;
75935;SDS011;64614;32.062;34.834;2023-02-28T16:49:45;11.55;;;6.72;;
75935;SDS011;64614;32.062;34.834;2023-02-28T16:52:13;11.15;;;6.32;;
75935;SDS011;64614;32.062;34.834;2023-02-28T16:54:39;11.80;;;5.82;;
75935;SDS011;64614;32.062;34.834;2023-02-28T16:57:06;11.68;;;6.50;;
75935;SDS011;64614;32.062;34.834;2023-02-28T16:59:40;11.95;;;6.53;;
75935;SDS011;64614;32.062;34.834;2023-02-28T17:02:15;13.18;;;6.95;;
75935;SDS011;64614;32.062;34.834;2023-02-28T17:07:30;12.40;;;6.72;;
75935;SDS011;64614;32.062;34.834;2023-02-28T17:09:55;13.98;;;7.55;;
75935;SDS011;64614;32.062;34.834;2023-02-28T17:12:22;14.27;;;6.88;;
75935;SDS011;64614;32.062;34.834;2023-02-28T17:14:48;12.48;;;6.97;;
75935;SDS011;64614;32.062;34.834;2023-02-28T17:17:20;14.55;;;7.18;;
75935;SDS011;64614;32.062;34.834;2023-02-28T17:19:47;14.70;;;7.25;;
75935;SDS011;64614;32.062;34.834;2023-02-28T17:31:42;14.02;;;7.00;;
75935;SDS011;64614;32.062;34.834;2023-02-28T17:41:58;14.75;;;6.80;;
75935;SDS011;64614;32.062;34.834;2023-02-28T17:44:24;12.50;;;6.75;;
75935;SDS011;64614;32.062;34.834;2023-02-28T17:52:48;13.10;;;7.07;;
75935;SDS011;64614;32.062;34.834;2023-02-28T18:08:17;21.08;;;8.32;;
75935;SDS011;64614;32.062;34.834;2023-02-28T18:10:48;16.40;;;7.70;;
75935;SDS011;64614;32.062;34.834;2023-02-28T18:19:19;17.75;;;7.63;;
75935;SDS011;64614;32.062;34.834;2023-02-28T18:21:50;16.80;;;7.38;;
75935;SDS011;64614;32.062;34.834;2023-02-28T18:24:17;20.58;;;8.00;;
75935;SDS011;64614;32.062;34.834;2023-02-28T18:26:44;18.95;;;8.07;;
75935;SDS011;64614;32.062;34.834;2023-02-28T18:31:46;17.63;;;7.53;;
75935;SDS011;64614;32.062;34.834;2023-02-28T18:34:15;15.00;;;7.30;;
75935;SDS011;64614;32.062;34.834;2023-02-28T18:41:45;12.82;;;7.10;;
75935;SDS011;64614;32.062;34.834;2023-02-28T18:44:11;14.93;;;7.10;;
75935;SDS011;64614;32.062;34.834;2023-02-28T18:46:38;14.35;;;7.53;;
75935;SDS011;64614;32.062;34.834;2023-02-28T18:49:04;13.48;;;7.07;;
75935;SDS011;64614;32.062;34.834;2023-02-28T18:54:05;12.93;;;7.00;;
75935;SDS011;64614;32.062;34.834;2023-02-28T18:56:31;15.07;;;6.97;;
75935;SDS011;64614;32.062;34.834;2023-02-28T18:58:58;15.77;;;7.70;;
75935;SDS011;64614;32.062;34.834;2023-02-28T19:01:25;14.60;;;7.05;;
75935;SDS011;64614;32.062;34.834;2023-02-28T19:03:55;16.23;;;7.60;;
75935;SDS011;64614;32.062;34.834;2023-02-28T19:06:21;14.75;;;7.80;;
75935;SDS011;64614;32.062;34.834;2023-02-28T19:08:55;21.08;;;8.13;;
75935;SDS011;64614;32.062;34.834;2023-02-28T19:13:59;16.42;;;7.43;;
75935;SDS011;64614;32.062;34.834;2023-02-28T19:16:27;14.50;;;7.25;;
75935;SDS011;64614;32.062;34.834;2023-02-28T19:18:53;13.57;;;8.02;;
75935;SDS011;64614;32.062;34.834;2023-02-28T19:21:21;14.88;;;6.93;;
75935;SDS011;64614;32.062;34.834;2023-02-28T19:23:50;16.33;;;7.72;;
75935;SDS011;64614;32.062;34.834;2023-02-28T19:26:18;17.83;;;7.50;;
75935;SDS011;64614;32.062;34.834;2023-02-28T19:28:46;15.63;;;7.65;;
75935;SDS011;64614;32.062;34.834;2023-02-28T19:31:13;14.75;;;7.80;;